createdAt,value
2022-11-12T00:01:05.722Z,15.33
2022-11-12T00:03:32.529Z,15.37
2022-11-12T00:05:59.386Z,14.10
2022-11-12T00:08:26.607Z,13.77
2022-11-12T00:10:53.583Z,13.13
2022-11-12T00:13:20.436Z,17.00
2022-11-12T00:15:47.775Z,12.37
2022-11-12T00:18:14.815Z,13.67
2022-11-12T00:20:41.859Z,16.70
2022-11-12T00:23:08.749Z,16.43
2022-11-12T00:25:35.798Z,14.37
2022-11-12T00:28:08.575Z,21.00
2022-11-12T00:30:38.832Z,17.73
2022-11-12T00:33:06.274Z,15.77
2022-11-12T00:35:34.147Z,17.80
2022-11-12T00:38:02.357Z,18.23
2022-11-12T00:40:29.845Z,21.93
2022-11-12T00:42:57.012Z,14.87
2022-11-12T00:45:23.960Z,18.00
2022-11-12T00:47:54.266Z,31.80
2022-11-12T00:50:21.246Z,34.13
2022-11-12T00:52:48.074Z,24.53
2022-11-12T00:55:14.953Z,30.67
2022-11-12T00:57:41.826Z,21.47
2022-11-12T01:00:14.950Z,18.60
2022-11-12T01:02:46.352Z,21.43
2022-11-12T01:05:16.751Z,23.03
2022-11-12T01:07:43.943Z,15.67
2022-11-12T01:10:11.664Z,21.80
2022-11-12T01:12:38.550Z,24.27
2022-11-12T01:15:06.642Z,18.77
2022-11-12T01:17:33.727Z,28.73
2022-11-12T01:20:00.613Z,19.83
2022-11-12T01:22:27.542Z,26.90
2022-11-12T01:24:54.372Z,15.87
2022-11-12T01:27:21.230Z,37.80
2022-11-12T01:29:48.087Z,78.80
2022-11-12T01:32:14.918Z,90.40
2022-11-12T01:34:41.734Z,46.27
2022-11-12T01:37:08.613Z,30.97
2022-11-12T01:39:35.442Z,20.03
2022-11-12T01:42:02.270Z,24.03
2022-11-12T01:44:32.028Z,33.13
2022-11-12T01:47:18.714Z,18.10
2022-11-12T01:49:54.053Z,32.23
2022-11-12T01:52:31.402Z,22.63
2022-11-12T01:55:04.973Z,24.23
2022-11-12T01:57:38.121Z,17.23
2022-11-12T02:00:09.554Z,23.33
2022-11-12T02:02:40.554Z,20.77
2022-11-12T02:05:11.172Z,20.00
2022-11-12T02:07:41.579Z,19.37
2022-11-12T02:10:10.036Z,18.00
2022-11-12T02:12:56.622Z,22.47
2022-11-12T02:15:23.501Z,22.57
2022-11-12T02:17:50.317Z,19.80
2022-11-12T02:20:17.770Z,24.70
2022-11-12T02:22:44.891Z,18.73
2022-11-12T02:25:16.193Z,35.40
2022-11-12T02:27:44.190Z,12.10
2022-11-12T02:30:12.153Z,16.80
2022-11-12T02:32:38.942Z,16.23
2022-11-12T02:35:06.287Z,31.27
2022-11-12T02:37:33.102Z,24.63
2022-11-12T02:40:00.101Z,41.27
2022-11-12T02:42:26.972Z,15.40
2022-11-12T02:44:53.955Z,23.73
2022-11-12T02:47:20.794Z,19.13
2022-11-12T02:49:47.621Z,18.43
2022-11-12T02:52:14.455Z,20.83
2022-11-12T02:54:41.283Z,17.80
2022-11-12T02:57:08.145Z,19.70
2022-11-12T02:59:34.945Z,16.13
2022-11-12T03:02:01.733Z,26.97
2022-11-12T03:04:28.581Z,30.57
2022-11-12T03:06:55.431Z,38.33
2022-11-12T03:09:22.383Z,22.80
2022-11-12T03:11:49.246Z,12.10
2022-11-12T03:14:16.074Z,35.30
2022-11-12T03:16:42.909Z,26.47
2022-11-12T03:19:09.765Z,16.20
2022-11-12T03:21:36.592Z,18.00
2022-11-12T03:24:03.503Z,16.40
2022-11-12T03:26:35.454Z,14.53
2022-11-12T03:29:02.849Z,15.23
2022-11-12T03:31:29.678Z,10.20
2022-11-12T03:33:56.555Z,9.40
2022-11-12T03:36:23.412Z,19.53
2022-11-12T03:38:50.212Z,12.37
2022-11-12T03:41:17.058Z,11.03
2022-11-12T03:43:43.875Z,16.97
2022-11-12T03:46:10.755Z,10.67
2022-11-12T03:48:38.086Z,17.03
2022-11-12T03:51:05.127Z,17.30
2022-11-12T03:53:31.968Z,17.53
2022-11-12T03:55:58.825Z,16.63
2022-11-12T03:58:25.910Z,12.00
2022-11-12T04:00:53.120Z,15.40
2022-11-12T04:03:20.090Z,9.80
2022-11-12T04:06:05.735Z,10.07
2022-11-12T04:08:38.702Z,10.77
2022-11-12T04:11:16.017Z,15.10
2022-11-12T04:13:47.791Z,13.07
2022-11-12T04:16:35.719Z,16.80
2022-11-12T04:19:23.854Z,15.17
2022-11-12T04:22:08.684Z,17.43
2022-11-12T04:25:01.715Z,9.23
2022-11-12T04:27:33.651Z,12.03
2022-11-12T04:30:19.566Z,10.17
2022-11-12T04:32:54.595Z,20.40
2022-11-12T04:35:23.479Z,20.77
2022-11-12T04:37:50.476Z,18.50
2022-11-12T04:40:36.837Z,15.23
2022-11-12T04:43:24.502Z,10.20
2022-11-12T04:45:53.662Z,19.07
2022-11-12T04:48:21.657Z,20.13
2022-11-12T04:50:54.340Z,16.10
2022-11-12T04:53:21.685Z,17.30
2022-11-12T04:55:52.637Z,18.27
2022-11-12T04:58:20.178Z,30.37
2022-11-12T05:00:47.871Z,47.20
2022-11-12T05:03:14.755Z,31.87
2022-11-12T05:05:41.739Z,20.70
2022-11-12T05:08:08.618Z,26.63
2022-11-12T05:10:35.620Z,25.97
2022-11-12T05:13:02.462Z,9.37
2022-11-12T05:15:29.318Z,18.43
2022-11-12T05:17:56.170Z,12.60
2022-11-12T05:20:23.316Z,9.17
2022-11-12T05:23:04.972Z,11.07
2022-11-12T05:25:34.407Z,19.23
2022-11-12T05:28:01.241Z,17.33
2022-11-12T05:30:28.041Z,27.80
2022-11-12T05:32:54.899Z,30.77
2022-11-12T05:35:21.708Z,25.53
2022-11-12T05:37:48.516Z,35.40
2022-11-12T05:40:15.511Z,11.70
2022-11-12T05:42:42.326Z,27.77
2022-11-12T05:45:09.632Z,15.60
2022-11-12T05:47:36.552Z,10.80
2022-11-12T05:50:03.889Z,31.77
2022-11-12T05:52:30.715Z,20.93
2022-11-12T05:54:57.563Z,14.77
2022-11-12T05:57:26.706Z,20.37
2022-11-12T05:59:53.509Z,21.13
2022-11-12T06:02:20.484Z,14.93
2022-11-12T06:04:47.316Z,12.53
2022-11-12T06:07:14.154Z,10.20
2022-11-12T06:09:41.070Z,10.23
2022-11-12T06:12:08.486Z,8.63
2022-11-12T06:14:35.415Z,10.93
2022-11-12T06:17:02.258Z,12.83
2022-11-12T06:19:29.097Z,11.60
2022-11-12T06:21:55.890Z,11.93
2022-11-12T06:24:22.986Z,16.17
2022-11-12T06:26:49.854Z,15.43
2022-11-12T06:29:16.603Z,10.93
2022-11-12T06:31:43.458Z,18.57
2022-11-12T06:34:12.452Z,11.43
2022-11-12T06:36:39.434Z,12.83
2022-11-12T06:39:06.465Z,10.20
2022-11-12T06:41:33.318Z,10.30
2022-11-12T06:44:00.144Z,9.20
2022-11-12T06:46:26.992Z,10.00
2022-11-12T06:48:53.828Z,15.07
2022-11-12T06:51:21.645Z,16.50
2022-11-12T06:53:49.369Z,14.10
2022-11-12T06:56:16.198Z,12.30
2022-11-12T06:58:43.507Z,10.60
2022-11-12T07:01:15.421Z,14.07
2022-11-12T07:03:44.139Z,11.60
2022-11-12T07:06:13.497Z,11.37
2022-11-12T07:08:41.281Z,12.13
2022-11-12T07:11:09.115Z,25.33
2022-11-12T07:13:36.786Z,11.73
2022-11-12T07:16:05.893Z,11.70
2022-11-12T07:18:34.608Z,17.70
2022-11-12T07:21:07.978Z,16.63
2022-11-12T07:23:36.592Z,12.97
2022-11-12T07:26:15.257Z,13.83
2022-11-12T07:28:42.642Z,23.87
2022-11-12T07:31:12.611Z,21.23
2022-11-12T07:33:39.718Z,17.33
2022-11-12T07:36:10.919Z,27.57
2022-11-12T07:38:39.232Z,13.43
2022-11-12T07:41:17.703Z,12.33
2022-11-12T07:43:47.138Z,17.30
2022-11-12T07:46:20.057Z,12.03
2022-11-12T07:48:47.719Z,18.60
2022-11-12T07:51:22.985Z,12.70
2022-11-12T07:53:53.742Z,18.47
2022-11-12T07:56:25.963Z,11.13
2022-11-12T07:58:53.184Z,11.13
2022-11-12T08:01:33.156Z,17.13
2022-11-12T08:04:01.685Z,11.17
2022-11-12T08:06:29.940Z,15.80
2022-11-12T08:08:58.311Z,10.43
2022-11-12T08:11:25.515Z,13.80
2022-11-12T08:13:52.718Z,10.23
2022-11-12T08:16:20.083Z,12.70
2022-11-12T08:18:47.625Z,10.17
2022-11-12T08:21:16.322Z,14.40
2022-11-12T08:23:43.300Z,24.87
2022-11-12T08:26:13.470Z,10.23
2022-11-12T08:28:40.646Z,10.87
2022-11-12T08:31:14.325Z,13.00
2022-11-12T08:33:42.027Z,11.20
2022-11-12T08:36:11.773Z,9.83
2022-11-12T08:38:39.399Z,10.07
2022-11-12T08:41:08.731Z,9.90
2022-11-12T08:43:36.087Z,9.30
2022-11-12T08:46:04.051Z,8.90
2022-11-12T08:48:34.399Z,9.53
2022-11-12T08:51:02.698Z,8.90
2022-11-12T08:53:29.549Z,8.97
2022-11-12T08:55:57.425Z,9.50
2022-11-12T08:58:25.802Z,9.43
2022-11-12T09:00:53.497Z,10.43
2022-11-12T09:03:22.588Z,11.20
2022-11-12T09:05:50.069Z,9.33
2022-11-12T09:08:20.199Z,10.50
2022-11-12T09:10:47.687Z,9.57
2022-11-12T09:13:14.671Z,9.57
2022-11-12T09:15:41.723Z,10.00
2022-11-12T09:18:13.417Z,10.33
2022-11-12T09:20:41.163Z,10.70
2022-11-12T09:23:15.921Z,10.53
2022-11-12T09:25:43.393Z,10.77
2022-11-12T09:28:12.845Z,10.60
2022-11-12T09:30:47.054Z,14.07
2022-11-12T09:33:19.074Z,11.00
2022-11-12T09:35:46.710Z,10.40
2022-11-12T09:38:18.028Z,10.70
2022-11-12T09:40:53.682Z,11.40
2022-11-12T09:43:23.477Z,11.50
2022-11-12T09:46:06.912Z,10.90
2022-11-12T09:48:44.979Z,13.77
2022-11-12T09:51:32.265Z,11.57
2022-11-12T09:54:02.762Z,12.17
2022-11-12T09:56:30.255Z,12.33
2022-11-12T09:58:57.301Z,10.93
2022-11-12T10:01:31.918Z,12.30
2022-11-12T10:04:20.324Z,12.10
2022-11-12T10:07:18.737Z,11.63
2022-11-12T10:10:08.965Z,10.53
2022-11-12T10:13:00.661Z,11.60
2022-11-12T10:16:00.918Z,12.60
2022-11-12T10:18:49.594Z,11.20
2022-11-12T10:21:29.820Z,11.73
2022-11-12T10:23:58.053Z,12.10
2022-11-12T10:26:26.458Z,11.10
2022-11-12T10:29:11.318Z,11.73
2022-11-12T10:31:38.976Z,11.17
2022-11-12T10:34:20.287Z,12.83
2022-11-12T10:36:55.289Z,12.47
2022-11-12T10:39:48.814Z,13.60
2022-11-12T10:42:17.885Z,11.40
2022-11-12T10:44:46.018Z,12.43
2022-11-12T10:47:38.982Z,13.53
2022-11-12T10:50:12.309Z,12.90
2022-11-12T10:52:39.323Z,13.50
2022-11-12T10:55:15.648Z,15.10
2022-11-12T10:57:42.641Z,12.93
2022-11-12T11:00:12.730Z,13.97
2022-11-12T11:02:53.975Z,12.90
2022-11-12T11:05:35.581Z,12.80
2022-11-12T11:08:03.664Z,13.13
2022-11-12T11:10:33.488Z,13.53
2022-11-12T11:13:09.348Z,14.17
2022-11-12T11:15:36.664Z,15.53
2022-11-12T11:18:03.537Z,12.63
2022-11-12T11:20:44.419Z,13.57
2022-11-12T11:23:28.934Z,13.20
2022-11-12T11:25:59.741Z,14.80
2022-11-12T11:29:09.768Z,15.20
2022-11-12T11:32:05.753Z,15.60
2022-11-12T11:34:45.233Z,16.40
2022-11-12T11:37:21.529Z,15.40
2022-11-12T11:40:08.716Z,16.43
2022-11-12T11:43:13.835Z,17.77
2022-11-12T11:46:01.524Z,17.47
2022-11-12T11:48:37.531Z,19.90
2022-11-12T11:51:38.191Z,15.40
2022-11-12T11:54:26.960Z,17.67
2022-11-12T11:56:58.623Z,17.20
2022-11-12T11:59:50.457Z,16.60
2022-11-12T12:02:54.971Z,16.10
2022-11-12T12:05:24.875Z,14.20
2022-11-12T12:07:58.944Z,18.60
2022-11-12T12:11:07.002Z,15.07
2022-11-12T12:13:51.272Z,15.20
2022-11-12T12:16:28.818Z,15.40
2022-11-12T12:19:27.025Z,15.40
2022-11-12T12:21:57.079Z,19.93
2022-11-12T12:24:40.531Z,16.10
2022-11-12T12:27:20.243Z,19.23
2022-11-12T12:29:57.013Z,20.07
2022-11-12T12:32:37.345Z,17.47
2022-11-12T12:35:23.034Z,19.37
2022-11-12T12:38:15.074Z,18.37
2022-11-12T12:40:48.322Z,19.50
2022-11-12T12:43:15.146Z,22.93
2022-11-12T12:45:43.029Z,23.27
2022-11-12T12:48:22.817Z,25.60
2022-11-12T12:50:59.186Z,22.53
2022-11-12T12:53:28.715Z,20.30
2022-11-12T12:56:06.881Z,17.90
2022-11-12T12:58:46.127Z,19.27
2022-11-12T13:01:22.524Z,19.80
2022-11-12T13:03:55.343Z,22.30
2022-11-12T13:06:22.340Z,24.43
2022-11-12T13:09:05.903Z,21.50
2022-11-12T13:12:00.427Z,21.33
2022-11-12T13:14:35.953Z,24.40
2022-11-12T13:17:08.943Z,24.03
2022-11-12T13:20:07.917Z,20.23
2022-11-12T13:22:40.858Z,22.20
2022-11-12T13:25:13.766Z,22.10
2022-11-12T13:27:40.897Z,23.50
2022-11-12T13:30:14.348Z,23.10
2022-11-12T13:32:48.490Z,21.93
2022-11-12T13:35:27.541Z,23.03
2022-11-12T13:38:09.498Z,20.60
2022-11-12T13:40:44.179Z,21.60
2022-11-12T13:43:17.561Z,23.77
2022-11-12T13:45:52.345Z,20.47
2022-11-12T13:48:34.408Z,24.60
2022-11-12T13:51:12.978Z,24.47
2022-11-12T13:53:39.889Z,26.80
2022-11-12T13:56:06.885Z,24.70
2022-11-12T13:58:35.889Z,22.97
2022-11-12T14:01:04.930Z,23.80
2022-11-12T14:03:45.662Z,24.27
2022-11-12T14:06:41.468Z,22.40
2022-11-12T14:09:18.546Z,27.83
2022-11-12T14:12:26.103Z,23.73
2022-11-12T14:14:55.725Z,27.47
2022-11-12T14:17:40.569Z,26.27
2022-11-12T14:20:32.851Z,23.60
2022-11-12T14:23:25.069Z,23.70
2022-11-12T14:25:54.201Z,22.70
2022-11-12T14:28:35.772Z,23.20
2022-11-12T14:31:04.965Z,25.07
2022-11-12T14:33:32.923Z,26.83
2022-11-12T14:36:05.366Z,25.63
2022-11-12T14:38:40.071Z,31.33
2022-11-12T14:41:24.675Z,42.83
2022-11-12T14:44:10.976Z,36.53
2022-11-12T14:46:46.850Z,32.00
2022-11-12T14:49:16.454Z,36.50
2022-11-12T14:52:06.152Z,33.47
2022-11-12T14:54:47.392Z,28.70
2022-11-12T14:57:33.058Z,27.70
2022-11-12T14:59:59.960Z,31.97
2022-11-12T15:02:47.212Z,29.33
2022-11-12T15:05:20.603Z,26.40
2022-11-12T15:07:55.054Z,30.03
2022-11-12T15:10:45.163Z,30.17
2022-11-12T15:13:38.699Z,26.97
2022-11-12T15:16:08.000Z,26.90
2022-11-12T15:18:36.935Z,30.97
2022-11-12T15:21:27.767Z,26.40
2022-11-12T15:24:05.829Z,27.03
2022-11-12T15:26:39.246Z,27.43
2022-11-12T15:29:15.398Z,29.60
2022-11-12T15:31:49.695Z,26.03
2022-11-12T15:34:30.354Z,23.97
2022-11-12T15:36:58.974Z,26.83
2022-11-12T15:39:27.885Z,28.97
2022-11-12T15:42:12.890Z,28.63
2022-11-12T15:44:39.781Z,25.50
2022-11-12T15:47:13.363Z,30.53
2022-11-12T15:49:54.408Z,31.53
2022-11-12T15:52:21.746Z,30.00
2022-11-12T15:54:48.973Z,29.77
2022-11-12T15:57:27.852Z,33.80
2022-11-12T16:00:08.382Z,34.90
2022-11-12T16:02:35.751Z,35.80
2022-11-12T16:05:02.569Z,34.93
2022-11-12T16:07:29.408Z,35.40
2022-11-12T16:09:56.282Z,34.97
2022-11-12T16:12:23.148Z,43.00
2022-11-12T16:14:50.038Z,49.00
2022-11-12T16:17:18.302Z,45.07
2022-11-12T16:19:45.189Z,57.87
2022-11-12T16:22:15.060Z,49.43
2022-11-12T16:24:42.550Z,43.27
2022-11-12T16:27:14.862Z,46.60
2022-11-12T16:29:41.917Z,59.23
2022-11-12T16:32:14.025Z,51.03
2022-11-12T16:34:40.902Z,46.70
2022-11-12T16:37:12.586Z,43.90
2022-11-12T16:39:39.778Z,49.40
2022-11-12T16:42:08.880Z,47.13
2022-11-12T16:44:35.703Z,49.13
2022-11-12T16:47:04.507Z,110.57
2022-11-12T16:49:35.881Z,51.17
2022-11-12T16:52:05.422Z,60.23
2022-11-12T16:54:32.293Z,74.07
2022-11-12T16:56:59.135Z,85.63
2022-11-12T16:59:25.923Z,75.10
2022-11-12T17:01:52.726Z,244.23
2022-11-12T17:04:19.553Z,352.40
2022-11-12T17:06:46.441Z,183.80
2022-11-12T17:09:13.365Z,149.77
2022-11-12T17:11:40.380Z,136.23
2022-11-12T17:14:07.672Z,67.43
2022-11-12T17:16:34.927Z,183.87
2022-11-12T17:19:02.380Z,380.87
2022-11-12T17:21:29.705Z,287.23
2022-11-12T17:23:58.025Z,403.40
2022-11-12T17:26:25.062Z,240.23
2022-11-12T17:28:59.205Z,414.97
2022-11-12T17:31:27.100Z,357.23
2022-11-12T17:33:54.060Z,251.47
2022-11-12T17:36:24.974Z,207.97
2022-11-12T17:38:58.981Z,301.27
2022-11-12T17:41:28.758Z,245.00
2022-11-12T17:44:00.201Z,261.17
2022-11-12T17:46:27.480Z,238.20
2022-11-12T17:48:55.935Z,229.77
2022-11-12T17:51:27.677Z,393.40
2022-11-12T17:53:54.543Z,201.00
2022-11-12T17:56:23.446Z,255.63
2022-11-12T17:58:51.191Z,288.90
2022-11-12T18:01:23.716Z,223.97
2022-11-12T18:03:52.995Z,180.47
2022-11-12T18:06:28.219Z,190.70
2022-11-12T18:09:11.709Z,352.53
2022-11-12T18:11:43.641Z,122.97
2022-11-12T18:14:10.553Z,187.90
2022-11-12T18:16:37.494Z,136.50
2022-11-12T18:19:04.799Z,177.27
2022-11-12T18:21:31.785Z,227.83
2022-11-12T18:23:58.588Z,279.30
2022-11-12T18:26:25.400Z,246.27
2022-11-12T18:28:56.543Z,130.60
2022-11-12T18:31:25.216Z,173.57
2022-11-12T18:33:53.901Z,211.07
2022-11-12T18:36:27.028Z,285.53
2022-11-12T18:38:54.727Z,285.60
2022-11-12T18:41:25.822Z,207.07
2022-11-12T18:43:53.870Z,188.87
2022-11-12T18:46:20.891Z,112.57
2022-11-12T18:48:48.160Z,157.00
2022-11-12T18:51:17.279Z,163.37
2022-11-12T18:53:45.703Z,130.00
2022-11-12T18:56:15.826Z,142.20
2022-11-12T18:58:42.663Z,112.43
2022-11-12T19:01:12.843Z,104.50
2022-11-12T19:03:39.747Z,99.13
2022-11-12T19:06:07.869Z,153.23
2022-11-12T19:08:35.186Z,158.17
2022-11-12T19:11:05.071Z,94.63
2022-11-12T19:13:32.563Z,110.43
2022-11-12T19:16:11.954Z,122.47
2022-11-12T19:18:40.289Z,240.10
2022-11-12T19:21:29.531Z,167.43
2022-11-12T19:23:57.508Z,71.53
2022-11-12T19:26:24.445Z,84.50
2022-11-12T19:28:51.731Z,85.17
2022-11-12T19:31:21.287Z,74.90
2022-11-12T19:33:48.580Z,82.17
2022-11-12T19:36:20.776Z,78.57
2022-11-12T19:38:48.113Z,76.93
2022-11-12T19:41:19.909Z,87.57
2022-11-12T19:43:47.545Z,99.43
2022-11-12T19:46:15.070Z,117.90
2022-11-12T19:48:42.036Z,91.73
2022-11-12T19:51:10.347Z,88.57
2022-11-12T19:53:44.721Z,72.97
2022-11-12T19:56:14.390Z,149.50
2022-11-12T19:58:45.485Z,86.60
2022-11-12T20:01:16.200Z,86.20
2022-11-12T20:03:43.513Z,53.13
2022-11-12T20:06:12.870Z,64.03
2022-11-12T20:08:39.723Z,71.70
2022-11-12T20:11:06.575Z,72.10
2022-11-12T20:13:33.507Z,69.77
2022-11-12T20:16:06.136Z,74.87
2022-11-12T20:18:33.084Z,67.77
2022-11-12T20:20:59.986Z,56.47
2022-11-12T20:23:27.185Z,56.73
2022-11-12T20:25:54.480Z,43.77
2022-11-12T20:28:21.352Z,44.10
2022-11-12T20:30:48.523Z,39.83
2022-11-12T20:33:15.392Z,41.87
2022-11-12T20:35:42.325Z,34.50
2022-11-12T20:38:09.124Z,35.30
2022-11-12T20:40:35.950Z,44.10
2022-11-12T20:43:02.810Z,33.90
2022-11-12T20:45:29.648Z,38.03
2022-11-12T20:47:56.517Z,32.80
2022-11-12T20:50:24.050Z,28.93
2022-11-12T20:52:51.034Z,34.60
2022-11-12T20:55:17.913Z,26.90
2022-11-12T20:57:44.871Z,30.83
2022-11-12T21:00:14.696Z,35.80
2022-11-12T21:02:42.871Z,55.10
2022-11-12T21:05:09.685Z,53.70
2022-11-12T21:07:36.519Z,40.10
2022-11-12T21:10:04.140Z,46.33
2022-11-12T21:12:31.105Z,56.93
2022-11-12T21:14:57.967Z,66.20
2022-11-12T21:17:24.883Z,48.37
2022-11-12T21:19:51.722Z,37.03
2022-11-12T21:22:18.752Z,41.00
2022-11-12T21:24:45.592Z,32.80
2022-11-12T21:27:12.493Z,48.00
2022-11-12T21:29:39.494Z,59.83
2022-11-12T21:32:06.378Z,59.37
2022-11-12T21:34:33.329Z,64.27
2022-11-12T21:37:01.416Z,53.77
2022-11-12T21:39:28.304Z,45.30
2022-11-12T21:41:55.187Z,48.53
2022-11-12T21:44:22.082Z,59.37
2022-11-12T21:46:48.924Z,70.30
2022-11-12T21:49:15.772Z,44.07
2022-11-12T21:51:42.684Z,50.77
2022-11-12T21:54:10.050Z,90.03
2022-11-12T21:56:38.015Z,32.00
2022-11-12T21:59:04.967Z,43.90
2022-11-12T22:01:34.357Z,41.63
2022-11-12T22:04:05.327Z,47.67
2022-11-12T22:06:35.252Z,52.40
2022-11-12T22:09:02.083Z,28.33
2022-11-12T22:11:28.972Z,45.03
2022-11-12T22:13:55.931Z,49.70
2022-11-12T22:16:25.598Z,33.00
2022-11-12T22:18:53.904Z,29.77
2022-11-12T22:21:26.067Z,45.93
2022-11-12T22:23:53.157Z,40.90
2022-11-12T22:26:23.071Z,59.27
2022-11-12T22:28:49.991Z,45.33
2022-11-12T22:31:19.975Z,74.83
2022-11-12T22:33:46.938Z,47.20
2022-11-12T22:36:20.978Z,30.20
2022-11-12T22:38:50.023Z,71.20
2022-11-12T22:41:28.489Z,37.77
2022-11-12T22:43:57.514Z,50.17
2022-11-12T22:46:26.991Z,53.53
2022-11-12T22:48:54.615Z,42.47
2022-11-12T22:51:24.146Z,39.40
2022-11-12T22:54:01.871Z,23.00
2022-11-12T22:56:29.421Z,23.27
2022-11-12T22:58:57.814Z,72.47
2022-11-12T23:01:34.206Z,32.23
2022-11-12T23:04:04.232Z,39.70
2022-11-12T23:06:31.832Z,22.10
2022-11-12T23:08:59.730Z,86.83
2022-11-12T23:11:26.832Z,38.63
2022-11-12T23:13:55.067Z,29.60
2022-11-12T23:16:25.375Z,26.43
2022-11-12T23:18:53.267Z,24.67
2022-11-12T23:21:23.142Z,31.40
2022-11-12T23:23:50.715Z,30.97
2022-11-12T23:26:20.933Z,27.57
2022-11-12T23:28:47.876Z,25.37
2022-11-12T23:31:23.666Z,33.20
2022-11-12T23:33:53.154Z,30.20
2022-11-12T23:36:20.604Z,27.60
2022-11-12T23:38:47.765Z,27.93
2022-11-12T23:41:17.444Z,21.50
2022-11-12T23:43:44.421Z,26.27
2022-11-12T23:46:12.133Z,37.00
2022-11-12T23:48:39.022Z,50.87
2022-11-12T23:51:08.264Z,32.73
2022-11-12T23:53:36.100Z,23.70
2022-11-12T23:56:03.634Z,23.27
2022-11-12T23:58:30.807Z,44.83
